Time;durP1;ratioP1;P1;durP2;ratioP2;P2;SDS_P1;SDS_P2;PMS_P1;PMS_P2;Temp;Humidity;BMP_temperature;BMP_pressure;BME280_temperature;BME280_humidity;BME280_pressure;Samples;Min_cycle;Max_cycle;Signal;HPM_P1;HPM_P2
2022/03/09 00:01:28;;;;;;;32.93;19.07;;;4.20;47.70;;;;;;5079115;28;20044;-69
2022/03/09 00:03:54;;;;;;;37.47;18.90;;;4.20;47.70;;;;;;5079278;28;20115;-70
2022/03/09 00:06:20;;;;;;;28.40;17.97;;;4.10;49.10;;;;;;5078673;28;20524;-68
2022/03/09 00:08:46;;;;;;;31.93;19.10;;;4.10;48.20;;;;;;5078678;28;20028;-69
2022/03/09 00:11:11;;;;;;;75.73;20.80;;;4.10;48.00;;;;;;5078669;28;20058;-69
2022/03/09 00:13:37;;;;;;;43.97;20.17;;;4.10;47.80;;;;;;5079054;28;20064;-69
2022/03/09 00:16:03;;;;;;;37.97;18.60;;;4.10;47.80;;;;;;5078607;28;20033;-69
2022/03/09 00:18:28;;;;;;;35.00;18.13;;;4.10;47.60;;;;;;5077254;28;20676;-82
2022/03/09 00:20:54;;;;;;;35.00;18.67;;;4.10;47.70;;;;;;5077894;28;20464;-82
2022/03/09 00:23:20;;;;;;;30.37;17.83;;;4.00;47.70;;;;;;5078322;28;20033;-71
2022/03/09 00:25:46;;;;;;;31.90;17.97;;;4.00;47.80;;;;;;5079024;28;20095;-81
2022/03/09 00:28:11;;;;;;;33.23;18.60;;;4.00;48.10;;;;;;5079108;28;20044;-71
2022/03/09 00:30:37;;;;;;;30.40;18.63;;;3.90;49.30;;;;;;5079097;28;20044;-70
2022/03/09 00:33:03;;;;;;;32.43;17.80;;;3.90;48.50;;;;;;5079099;28;20032;-70
2022/03/09 00:35:28;;;;;;;34.90;18.93;;;3.90;49.00;;;;;;5079014;28;20136;-82
2022/03/09 00:37:54;;;;;;;31.40;16.77;;;3.90;48.80;;;;;;5078982;28;20037;-69
2022/03/09 00:40:20;;;;;;;28.63;18.17;;;3.90;48.40;;;;;;5079432;28;20040;-82
2022/03/09 00:42:46;;;;;;;36.93;18.67;;;3.90;48.40;;;;;;5079155;28;20033;-69
2022/03/09 00:45:12;;;;;;;31.37;18.50;;;3.80;48.40;;;;;;5078631;28;20544;-80
2022/03/09 00:47:38;;;;;;;30.23;18.53;;;3.90;48.30;;;;;;5078815;28;20041;-69
2022/03/09 00:50:04;;;;;;;31.10;19.17;;;3.80;48.20;;;;;;5078738;28;20056;-82
2022/03/09 00:52:30;;;;;;;33.37;18.60;;;3.80;48.30;;;;;;5079022;28;20139;-82
2022/03/09 00:54:56;;;;;;;29.93;18.93;;;3.80;48.20;;;;;;5078607;28;20060;-69
2022/03/09 00:57:22;;;;;;;30.77;18.90;;;3.80;48.30;;;;;;5078531;28;20119;-70
2022/03/09 00:59:48;;;;;;;27.30;17.80;;;3.80;48.20;;;;;;5078511;28;20389;-70
2022/03/09 01:02:13;;;;;;;24.97;16.33;;;3.70;48.80;;;;;;5074829;28;20036;-70
2022/03/09 01:04:39;;;;;;;26.33;15.83;;;3.70;48.40;;;;;;5075504;28;20043;-69
2022/03/09 01:07:05;;;;;;;25.20;15.70;;;3.70;48.40;;;;;;5074989;28;20052;-70
2022/03/09 01:09:31;;;;;;;30.97;16.43;;;3.70;48.50;;;;;;5074972;28;20671;-69
2022/03/09 01:11:57;;;;;;;32.30;19.03;;;3.60;48.40;;;;;;5074775;28;20048;-83
2022/03/09 01:14:23;;;;;;;31.23;18.63;;;3.60;48.30;;;;;;5074956;28;20025;-70
2022/03/09 01:16:49;;;;;;;30.77;17.50;;;3.60;48.40;;;;;;5075048;28;20033;-70
2022/03/09 01:19:15;;;;;;;30.73;18.07;;;3.60;48.40;;;;;;5074793;28;20044;-69
2022/03/09 01:21:40;;;;;;;32.00;18.73;;;3.60;48.30;;;;;;5074657;28;20060;-70
2022/03/09 01:24:06;;;;;;;30.03;18.07;;;3.60;48.30;;;;;;5074944;28;20500;-69
2022/03/09 01:26:33;;;;;;;32.27;18.10;;;3.60;48.40;;;;;;5074888;28;20067;-69
2022/03/09 01:28:58;;;;;;;30.10;18.23;;;3.50;48.30;;;;;;5074523;28;20036;-70
2022/03/09 01:31:24;;;;;;;27.03;17.53;;;3.50;48.50;;;;;;5074471;28;20032;-69
2022/03/09 01:33:50;;;;;;;32.50;17.57;;;3.50;48.60;;;;;;5074567;28;20031;-69
2022/03/09 01:36:16;;;;;;;28.97;16.67;;;3.50;48.90;;;;;;5074684;28;20039;-69
2022/03/09 01:38:41;;;;;;;33.67;17.47;;;3.40;48.80;;;;;;5074561;28;20491;-70
2022/03/09 01:41:07;;;;;;;27.37;17.37;;;3.40;48.90;;;;;;5074545;28;20040;-73
2022/03/09 01:43:34;;;;;;;34.87;20.93;;;3.40;49.10;;;;;;5074347;28;20111;-70
2022/03/09 01:45:59;;;;;;;35.13;20.00;;;3.40;49.10;;;;;;5074148;28;20075;-70
2022/03/09 01:48:25;;;;;;;35.50;20.47;;;3.30;49.10;;;;;;5074512;28;20450;-70
2022/03/09 01:50:51;;;;;;;45.73;22.20;;;3.30;49.20;;;;;;5074258;28;20082;-70
2022/03/09 01:53:18;;;;;;;34.87;20.03;;;3.30;49.40;;;;;;5074384;28;20047;-69
2022/03/09 01:55:44;;;;;;;35.30;19.80;;;3.20;49.30;;;;;;5074372;28;20044;-70
2022/03/09 01:58:10;;;;;;;36.07;18.43;;;3.20;49.30;;;;;;5072880;28;20025;-69
2022/03/09 02:00:35;;;;;;;32.03;18.87;;;3.20;49.30;;;;;;5071156;28;20562;-70
2022/03/09 02:03:01;;;;;;;31.60;18.17;;;3.20;49.10;;;;;;5071701;28;20032;-70
2022/03/09 02:05:27;;;;;;;30.00;17.60;;;3.20;49.00;;;;;;5073258;28;20519;-74
2022/03/09 02:10:56;;;;;;;37.13;16.55;;;3.20;49.20;;;;;;5025621;23;20065;-70
2022/03/09 02:13:22;;;;;;;27.00;16.37;;;3.20;49.10;;;;;;5014241;28;20029;-69
2022/03/09 02:15:47;;;;;;;35.33;17.13;;;3.20;49.30;;;;;;5015008;28;20046;-80
2022/03/09 02:18:13;;;;;;;33.63;16.90;;;3.20;49.30;;;;;;5014319;28;20034;-80
2022/03/09 02:20:43;;;;;;;30.70;16.90;;;3.20;49.40;;;;;;5014148;28;20116;-71
2022/03/09 02:23:09;;;;;;;29.80;16.07;;;3.20;49.40;;;;;;5014205;28;20085;-71
2022/03/09 02:25:34;;;;;;;27.40;16.10;;;3.10;50.30;;;;;;5013979;28;20053;-70
2022/03/09 02:28:01;;;;;;;25.73;16.63;;;3.10;50.30;;;;;;5014013;28;20405;-69
2022/03/09 02:30:27;;;;;;;24.70;15.53;;;3.10;50.30;;;;;;5014604;28;20042;-70
2022/03/09 02:32:53;;;;;;;29.27;16.20;;;3.10;49.80;;;;;;5014262;28;20108;-70
2022/03/09 02:35:19;;;;;;;31.20;15.97;;;3.10;49.50;;;;;;5014073;28;20046;-75
2022/03/09 02:37:46;;;;;;;30.13;16.17;;;3.10;49.40;;;;;;5013965;28;20104;-69
2022/03/09 02:40:14;;;;;;;26.73;16.23;;;3.10;49.30;;;;;;5013820;28;20037;-70
2022/03/09 02:42:40;;;;;;;26.03;15.87;;;3.10;49.50;;;;;;5013558;28;20033;-69
2022/03/09 02:45:07;;;;;;;30.70;16.37;;;3.10;49.40;;;;;;5013835;28;20501;-70
2022/03/09 02:47:33;;;;;;;29.03;16.67;;;3.00;49.40;;;;;;5013506;28;20046;-70
2022/03/09 02:49:59;;;;;;;26.47;15.70;;;3.00;49.40;;;;;;5013578;28;20034;-70
2022/03/09 02:52:25;;;;;;;34.87;16.07;;;3.00;49.30;;;;;;5013587;28;20098;-70
2022/03/09 02:54:52;;;;;;;26.00;16.60;;;3.00;49.30;;;;;;5013386;28;20490;-70
2022/03/09 02:57:18;;;;;;;35.80;17.13;;;2.90;49.30;;;;;;5013455;28;20432;-70
2022/03/09 02:59:43;;;;;;;29.17;16.10;;;2.90;49.40;;;;;;4995900;28;20037;-70
2022/03/09 03:02:09;;;;;;;29.93;15.43;;;2.80;49.60;;;;;;5013818;28;20037;-81
2022/03/09 03:04:35;;;;;;;31.83;16.00;;;2.80;49.60;;;;;;5013844;28;20038;-70
2022/03/09 03:07:00;;;;;;;28.20;16.40;;;2.80;49.80;;;;;;5014013;28;20045;-72
2022/03/09 03:09:26;;;;;;;29.97;17.13;;;2.70;50.00;;;;;;5013392;28;20038;-70
2022/03/09 03:11:52;;;;;;;36.17;18.90;;;2.70;50.10;;;;;;5013701;28;20038;-70
2022/03/09 03:14:17;;;;;;;30.43;17.57;;;2.70;50.30;;;;;;5013550;28;20117;-70
2022/03/09 03:16:43;;;;;;;28.93;17.10;;;2.60;50.10;;;;;;5013516;28;20038;-70
2022/03/09 03:19:09;;;;;;;32.87;16.87;;;2.60;50.10;;;;;;5013211;28;20077;-70
2022/03/09 03:21:34;;;;;;;29.43;16.70;;;2.60;50.20;;;;;;5013085;28;20475;-69
2022/03/09 03:24:00;;;;;;;29.70;16.80;;;2.60;50.50;;;;;;5012783;28;20045;-70
2022/03/09 03:26:28;;;;;;;30.10;17.53;;;2.60;50.50;;;;;;5012756;28;20049;-70
2022/03/09 03:28:54;;;;;;;28.83;17.93;;;2.60;50.70;;;;;;5012970;28;20038;-70
2022/03/09 03:31:20;;;;;;;36.40;17.77;;;2.50;50.70;;;;;;5013123;28;20042;-70
2022/03/09 03:33:47;;;;;;;28.47;17.33;;;2.50;50.80;;;;;;5013105;28;20034;-79
2022/03/09 03:36:16;;;;;;;34.60;18.70;;;2.40;50.90;;;;;;5012971;28;20042;-78
2022/03/09 03:38:43;;;;;;;29.47;17.93;;;2.40;50.80;;;;;;5012538;28;20026;-69
2022/03/09 03:41:08;;;;;;;31.23;17.67;;;2.40;51.10;;;;;;5013000;28;20112;-70
2022/03/09 03:43:34;;;;;;;30.30;17.80;;;2.40;51.20;;;;;;5012727;28;20125;-70
2022/03/09 03:46:00;;;;;;;27.33;15.90;;;2.40;51.60;;;;;;5012984;28;20081;-70
2022/03/09 03:48:26;;;;;;;22.60;14.83;;;2.50;51.80;;;;;;5012753;28;20375;-70
2022/03/09 03:50:51;;;;;;;27.60;16.03;;;2.40;51.90;;;;;;5012768;28;20034;-70
2022/03/09 03:53:17;;;;;;;23.57;14.17;;;2.50;51.80;;;;;;5012450;28;20088;-70
2022/03/09 03:55:44;;;;;;;26.70;13.90;;;2.50;52.00;;;;;;5012508;28;20117;-69
2022/03/09 03:58:11;;;;;;;19.93;10.90;;;2.50;52.10;;;;;;4995219;28;20037;-70
2022/03/09 04:00:37;;;;;;;18.27;12.10;;;2.50;51.80;;;;;;5012881;28;20398;-69
2022/03/09 04:03:03;;;;;;;16.63;11.23;;;2.50;51.70;;;;;;5012921;28;20030;-70
2022/03/09 04:05:29;;;;;;;21.37;11.40;;;2.50;51.90;;;;;;5012397;28;20441;-70
2022/03/09 04:07:54;;;;;;;18.53;11.10;;;2.50;51.60;;;;;;5012440;28;20045;-70
2022/03/09 04:10:20;;;;;;;18.73;10.40;;;2.50;51.50;;;;;;5012181;28;20425;-70
2022/03/09 04:12:46;;;;;;;16.83;10.10;;;2.50;51.40;;;;;;5012719;28;20053;-70
2022/03/09 04:15:11;;;;;;;14.07;9.07;;;2.50;51.20;;;;;;5012537;28;20113;-70
2022/03/09 04:17:45;;;;;;;16.53;9.50;;;2.60;51.30;;;;;;5012461;28;20427;-69
2022/03/09 04:20:12;;;;;;;15.80;10.30;;;2.60;51.40;;;;;;5012569;28;20042;-70
2022/03/09 04:22:38;;;;;;;16.70;9.80;;;2.60;51.00;;;;;;5012478;28;20529;-70
2022/03/09 04:25:04;;;;;;;22.57;11.37;;;2.60;50.90;;;;;;5012236;28;20109;-70
2022/03/09 04:27:30;;;;;;;17.67;11.17;;;2.50;50.70;;;;;;5011447;28;20077;-70
2022/03/09 04:29:56;;;;;;;22.93;11.33;;;2.50;50.70;;;;;;5012120;28;20069;-81
2022/03/09 04:32:22;;;;;;;23.40;11.87;;;2.50;50.90;;;;;;5012299;28;20037;-77
2022/03/09 04:34:47;;;;;;;23.83;13.53;;;2.40;50.70;;;;;;5012273;28;20513;-70
2022/03/09 04:37:13;;;;;;;21.57;12.37;;;2.40;50.80;;;;;;5014176;28;20088;-71
2022/03/09 04:39:39;;;;;;;19.33;11.87;;;2.40;50.80;;;;;;5016081;28;20437;-70
2022/03/09 04:42:04;;;;;;;23.50;12.10;;;2.30;50.90;;;;;;5016672;28;20425;-70
2022/03/09 04:44:30;;;;;;;20.63;13.10;;;2.30;51.10;;;;;;5015967;28;20053;-70
2022/03/09 04:46:56;;;;;;;21.83;12.60;;;2.20;51.40;;;;;;5015845;28;20041;-70
2022/03/09 04:49:21;;;;;;;23.90;12.93;;;2.20;51.30;;;;;;5016019;28;20108;-70
2022/03/09 04:51:47;;;;;;;24.90;12.63;;;2.20;51.30;;;;;;5015864;28;20030;-70
2022/03/09 04:54:13;;;;;;;24.57;12.77;;;2.20;51.40;;;;;;5015895;28;20113;-70
2022/03/09 04:56:38;;;;;;;23.33;12.50;;;2.10;52.20;;;;;;5016003;28;20042;-69
2022/03/09 04:59:04;;;;;;;23.37;10.93;;;2.20;52.00;;;;;;5015825;28;20077;-70
2022/03/09 05:01:30;;;;;;;21.53;12.43;;;2.10;52.10;;;;;;5015964;28;20102;-70
2022/03/09 05:03:55;;;;;;;23.80;12.83;;;2.10;52.00;;;;;;5015735;28;20037;-70
2022/03/09 05:06:21;;;;;;;22.03;12.03;;;2.10;51.80;;;;;;5015478;28;20096;-71
2022/03/09 05:08:47;;;;;;;22.73;12.77;;;2.00;51.70;;;;;;5014876;28;20558;-69
2022/03/09 05:11:12;;;;;;;23.40;11.73;;;2.00;51.90;;;;;;5014674;28;20080;-70
2022/03/09 05:13:38;;;;;;;20.00;11.33;;;2.00;52.20;;;;;;5015520;28;20512;-70
2022/03/09 05:16:05;;;;;;;25.93;12.10;;;2.00;52.10;;;;;;5015514;28;20030;-70
2022/03/09 05:18:32;;;;;;;34.40;12.27;;;1.90;51.80;;;;;;5014997;28;20070;-80
2022/03/09 05:20:58;;;;;;;33.77;12.40;;;1.90;51.80;;;;;;5015147;28;20030;-73
2022/03/09 05:23:24;;;;;;;22.13;11.30;;;1.90;51.80;;;;;;5014923;28;20046;-70
2022/03/09 05:25:49;;;;;;;32.43;12.67;;;1.90;51.80;;;;;;5015164;28;20037;-70
2022/03/09 05:28:15;;;;;;;30.13;12.13;;;1.90;52.10;;;;;;5015080;28;20042;-69
2022/03/09 05:30:40;;;;;;;25.60;10.90;;;1.90;52.00;;;;;;5015427;28;20477;-70
2022/03/09 05:33:06;;;;;;;33.13;12.27;;;1.80;52.10;;;;;;5015284;28;20386;-70
2022/03/09 05:35:32;;;;;;;23.20;11.57;;;1.80;52.30;;;;;;5015209;28;20404;-69
2022/03/09 05:37:57;;;;;;;23.47;12.07;;;1.80;52.40;;;;;;5015111;28;20026;-69
2022/03/09 05:40:23;;;;;;;31.03;13.13;;;1.80;52.40;;;;;;5014848;28;20034;-70
2022/03/09 05:42:49;;;;;;;30.73;13.93;;;1.80;52.20;;;;;;5014777;28;20073;-80
2022/03/09 05:45:15;;;;;;;32.83;14.07;;;1.80;52.30;;;;;;5014463;28;20109;-70
2022/03/09 05:47:40;;;;;;;22.77;11.47;;;1.80;52.60;;;;;;5014094;28;20125;-70
2022/03/09 05:50:08;;;;;;;23.97;11.67;;;1.80;52.50;;;;;;5014996;28;20058;-70
2022/03/09 05:52:33;;;;;;;29.27;11.83;;;1.90;52.40;;;;;;5014725;28;20048;-72
2022/03/09 05:54:59;;;;;;;29.13;11.17;;;1.80;52.20;;;;;;5014714;28;20109;-70
2022/03/09 05:57:25;;;;;;;44.00;12.37;;;1.80;52.20;;;;;;5014479;28;20093;-70
2022/03/09 05:59:51;;;;;;;26.77;11.67;;;1.80;52.20;;;;;;5014839;28;20060;-69
2022/03/09 06:02:17;;;;;;;25.77;12.47;;;1.80;52.20;;;;;;5014673;28;20486;-69
2022/03/09 06:04:43;;;;;;;39.83;11.43;;;1.80;52.20;;;;;;5014701;28;20038;-70
2022/03/09 06:07:09;;;;;;;22.83;11.17;;;1.80;52.30;;;;;;5014238;28;20460;-70
2022/03/09 06:09:34;;;;;;;23.67;12.40;;;1.70;52.30;;;;;;5014130;28;20125;-70
2022/03/09 06:12:00;;;;;;;29.77;11.73;;;1.80;52.30;;;;;;5012833;28;20038;-75
2022/03/09 06:14:26;;;;;;;23.63;11.43;;;1.80;52.40;;;;;;5014455;28;20470;-70
2022/03/09 06:16:51;;;;;;;32.57;11.57;;;1.80;53.90;;;;;;5014451;28;20156;-70
2022/03/09 06:19:17;;;;;;;25.97;12.10;;;1.80;53.30;;;;;;5014189;28;20037;-70
2022/03/09 06:21:43;;;;;;;24.13;11.23;;;1.80;53.00;;;;;;5014186;28;20033;-70
2022/03/09 06:24:10;;;;;;;26.97;12.00;;;1.90;52.80;;;;;;5014089;28;20513;-70
2022/03/09 06:26:39;;;;;;;29.03;11.63;;;1.90;52.90;;;;;;5014144;28;20048;-70
2022/03/09 06:29:05;;;;;;;34.50;13.70;;;2.00;53.70;;;;;;5014100;28;20054;-77
2022/03/09 06:31:32;;;;;;;31.53;11.90;;;2.00;53.60;;;;;;5013741;28;20026;-82
2022/03/09 06:33:57;;;;;;;20.40;10.97;;;2.10;53.30;;;;;;5014144;28;20161;-69
2022/03/09 06:36:23;;;;;;;23.63;11.00;;;2.10;53.00;;;;;;5013659;28;20097;-70
2022/03/09 06:38:49;;;;;;;41.93;13.37;;;2.20;52.90;;;;;;5013548;28;20045;-82
2022/03/09 06:41:15;;;;;;;30.07;11.63;;;2.20;53.80;;;;;;5013954;28;20034;-69
2022/03/09 06:43:40;;;;;;;32.80;12.07;;;2.30;54.20;;;;;;5014214;28;20030;-81
2022/03/09 06:46:06;;;;;;;34.90;12.20;;;2.30;54.00;;;;;;5013774;28;20045;-80
2022/03/09 06:48:32;;;;;;;39.87;12.37;;;2.30;55.30;;;;;;5014057;28;20041;-70
2022/03/09 06:50:57;;;;;;;20.50;10.70;;;2.40;55.50;;;;;;5013884;28;20045;-70
2022/03/09 06:53:23;;;;;;;29.17;12.57;;;2.50;55.10;;;;;;5013754;28;20041;-80
2022/03/09 06:55:49;;;;;;;42.67;17.13;;;2.60;54.10;;;;;;5013631;28;20038;-70
2022/03/09 06:58:15;;;;;;;40.77;19.00;;;2.70;53.90;;;;;;5013658;28;20034;-68
2022/03/09 07:00:41;;;;;;;38.87;17.03;;;2.80;53.60;;;;;;5011990;28;20109;-67
2022/03/09 07:03:06;;;;;;;38.70;14.60;;;2.90;53.40;;;;;;5013461;28;20037;-67
2022/03/09 07:05:33;;;;;;;31.57;13.10;;;3.00;53.80;;;;;;5013465;28;20030;-65
2022/03/09 07:07:59;;;;;;;28.90;13.53;;;3.00;54.00;;;;;;5013053;28;20034;-68
2022/03/09 07:10:25;;;;;;;32.23;12.77;;;3.10;54.60;;;;;;5012178;28;20132;-68
2022/03/09 07:12:51;;;;;;;35.50;13.30;;;3.10;54.60;;;;;;5012901;28;20117;-75
2022/03/09 07:15:17;;;;;;;32.30;12.10;;;3.20;54.40;;;;;;5013072;28;20628;-72
2022/03/09 07:17:44;;;;;;;25.07;12.00;;;3.30;54.60;;;;;;5030628;28;20120;-68
2022/03/09 07:20:11;;;;;;;32.33;13.20;;;3.40;54.10;;;;;;5032105;28;20032;-75
2022/03/09 07:22:39;;;;;;;25.97;11.57;;;3.50;54.00;;;;;;5027053;28;20050;-67
2022/03/09 07:25:06;;;;;;;30.37;11.47;;;3.60;54.00;;;;;;5027716;28;20033;-66
2022/03/09 07:27:31;;;;;;;23.33;11.63;;;3.70;53.80;;;;;;5032592;28;20042;-76
2022/03/09 07:29:57;;;;;;;23.67;12.07;;;3.80;53.70;;;;;;5031952;28;20038;-66
2022/03/09 07:32:23;;;;;;;27.27;12.37;;;3.90;54.00;;;;;;5032341;28;20124;-64
2022/03/09 07:34:48;;;;;;;26.13;11.60;;;4.00;54.00;;;;;;5032793;28;20285;-75
2022/03/09 07:37:14;;;;;;;35.60;13.53;;;4.10;54.00;;;;;;5032480;28;20034;-64
2022/03/09 07:39:40;;;;;;;30.10;12.73;;;4.20;54.20;;;;;;5032612;28;20406;-68
2022/03/09 07:42:06;;;;;;;25.37;11.83;;;4.30;54.20;;;;;;5032778;28;20034;-63
2022/03/09 07:44:32;;;;;;;20.50;10.00;;;4.40;54.20;;;;;;5032687;28;20116;-63
2022/03/09 07:46:58;;;;;;;25.40;11.47;;;4.50;53.40;;;;;;5032750;28;20041;-72
2022/03/09 07:49:24;;;;;;;23.00;12.40;;;4.60;52.70;;;;;;5032645;28;20035;-64
2022/03/09 07:51:49;;;;;;;23.87;11.47;;;4.70;52.40;;;;;;5032712;28;20065;-67
2022/03/09 07:54:16;;;;;;;31.90;12.30;;;4.90;52.30;;;;;;5032711;28;20091;-66
2022/03/09 07:56:42;;;;;;;25.57;11.70;;;4.90;52.40;;;;;;5005763;28;20045;-67
2022/03/09 07:59:10;;;;;;;35.03;11.60;;;5.00;52.30;;;;;;5032214;28;20069;-64
2022/03/09 08:01:37;;;;;;;20.83;11.27;;;5.10;51.80;;;;;;5032337;28;20433;-65
2022/03/09 08:04:03;;;;;;;18.80;10.83;;;;;;;;;;5032687;28;20124;-65
2022/03/09 08:06:29;;;;;;;18.73;10.50;;;;;;;;;;5032310;28;20057;-64
2022/03/09 08:08:55;;;;;;;18.03;10.67;;;5.20;52.00;;;;;;5032432;28;20040;-64
2022/03/09 08:11:22;;;;;;;20.03;10.73;;;5.50;51.60;;;;;;5034494;28;20051;-64
2022/03/09 08:13:48;;;;;;;29.50;11.73;;;5.60;51.90;;;;;;5036638;28;20029;-64
2022/03/09 08:16:14;;;;;;;18.60;10.17;;;;;;;;;;5036565;28;20034;-64
2022/03/09 08:18:40;;;;;;;20.53;9.63;;;;;;;;;;5036568;28;20508;-64
2022/03/09 08:21:07;;;;;;;19.20;9.57;;;;;;;;;;5036760;28;20032;-68
2022/03/09 08:23:33;;;;;;;17.03;8.80;;;;;;;;;;5036830;28;20030;-65
2022/03/09 08:25:59;;;;;;;14.80;9.57;;;;;;;;;;5036124;28;20096;-64
2022/03/09 08:28:25;;;;;;;17.30;9.20;;;;;;;;;;5036210;28;20068;-64
2022/03/09 08:30:52;;;;;;;17.53;9.03;;;;;;;;;;5036360;28;20034;-64
2022/03/09 08:33:18;;;;;;;14.37;8.77;;;;;;;;;;5036463;28;20121;-65
2022/03/09 08:35:44;;;;;;;19.50;8.90;;;;;;;;;;5036349;28;20516;-64
2022/03/09 08:38:10;;;;;;;14.13;8.63;;;;;;;;;;5036123;28;20494;-64
2022/03/09 08:40:36;;;;;;;18.00;9.37;;;;;;;;;;5036370;28;20065;-64
2022/03/09 08:43:02;;;;;;;17.83;9.27;;;;;;;;;;5036166;28;20088;-64
2022/03/09 08:45:28;;;;;;;16.17;9.33;;;;;;;;;;5036144;28;20042;-64
2022/03/09 08:47:54;;;;;;;18.93;9.47;;;;;;;;;;5036066;28;20056;-64
2022/03/09 08:50:20;;;;;;;15.63;8.20;;;;;;;;;;5036201;28;20025;-67
2022/03/09 08:52:46;;;;;;;12.70;9.03;;;;;;;;;;5036138;28;20450;-68
2022/03/09 08:55:12;;;;;;;14.30;9.10;;;;;;;;;;5035840;28;20052;-64
2022/03/09 08:57:38;;;;;;;18.30;9.50;;;;;;;;;;5035767;28;20037;-64
2022/03/09 09:00:05;;;;;;;16.37;9.47;;;;;;;;;;5035588;28;20029;-66
2022/03/09 09:02:31;;;;;;;13.73;9.27;;;;;;;;;;5036189;28;20033;-66
2022/03/09 09:04:58;;;;;;;12.17;8.67;;;;;;;;;;5035442;28;20034;-66
2022/03/09 09:07:24;;;;;;;15.20;9.27;;;;;;;;;;5035391;28;20341;-67
2022/03/09 09:09:50;;;;;;;18.63;9.47;;;;;;;;;;5035226;28;20037;-70
2022/03/09 09:12:17;;;;;;;17.20;9.87;;;;;;;;;;5024327;28;20045;-66
2022/03/09 09:14:43;;;;;;;14.40;9.40;;;;;;;;;;5007095;28;20030;-66
2022/03/09 09:17:09;;;;;;;17.07;10.17;;;;;;;;;;5004067;28;20034;-67
2022/03/09 09:19:35;;;;;;;18.30;10.70;;;;;;;;;;5005788;28;20442;-67
2022/03/09 09:22:03;;;;;;;16.07;10.13;;;;;;;;;;5004530;28;20038;-66
2022/03/09 09:24:29;;;;;;;25.33;9.83;;;;;;;;;;5004152;28;20035;-67
2022/03/09 09:26:55;;;;;;;23.57;9.50;;;;;;;;;;5006371;28;20045;-67
2022/03/09 09:29:21;;;;;;;19.20;10.03;;;;;;;;;;5005024;28;20037;-66
2022/03/09 09:31:48;;;;;;;16.00;9.10;;;;;;;;;;5011956;28;20040;-67
2022/03/09 09:34:14;;;;;;;17.80;8.20;;;;;;;;;;5014081;28;20092;-67
2022/03/09 09:36:43;;;;;;;13.47;8.00;;;;;;;;;;5014283;28;20038;-67
2022/03/09 09:39:09;;;;;;;19.83;10.13;;;;;;;;;;5015236;28;20547;-66
2022/03/09 09:41:36;;;;;;;16.70;10.73;;;;;;;;;;5015283;28;20109;-66
2022/03/09 09:44:02;;;;;;;22.17;11.97;;;;;;;;;;5015351;28;20053;-67
2022/03/09 09:46:29;;;;;;;21.20;11.83;;;;;;;;;;5014951;28;20057;-67
2022/03/09 09:48:55;;;;;;;20.53;12.53;;;;;;;;;;5015156;28;20030;-67
2022/03/09 09:51:23;;;;;;;20.23;12.53;;;;;;;;;;5014552;28;20494;-66
2022/03/09 09:53:49;;;;;;;27.33;15.00;;;;;;;;;;5013772;28;20398;-66
2022/03/09 09:56:16;;;;;;;25.87;15.10;;;;;;;;;;5004918;28;20054;-66
2022/03/09 09:58:43;;;;;;;27.17;15.17;;;;;;;;;;5002113;28;20394;-66
2022/03/09 10:01:10;;;;;;;23.57;14.00;;;;;;;;;;5003772;28;20030;-66
2022/03/09 10:03:36;;;;;;;23.50;14.10;;;;;;;;;;4996785;28;20042;-66
2022/03/09 10:06:02;;;;;;;21.17;13.67;;;;;;;;;;5014580;28;20474;-67
2022/03/09 10:08:28;;;;;;;25.00;13.70;;;;;;;;;;5014586;28;20044;-66
2022/03/09 10:10:56;;;;;;;35.13;14.30;;;;;;;;;;5014742;28;20053;-67
2022/03/09 10:13:26;;;;;;;24.73;14.70;;;;;;;;;;5014849;28;20036;-66
2022/03/09 10:16:11;;;;;;;22.60;14.30;;;;;;;;;;5014764;28;20041;-67
2022/03/09 10:18:38;;;;;;;21.43;14.77;;;;;;;;;;5014737;28;20037;-67
2022/03/09 10:21:14;;;;;;;19.50;13.73;;;;;;;;;;5014755;28;20033;-67
2022/03/09 10:23:55;;;;;;;22.70;14.77;;;;;;;;;;5014761;28;20103;-67
2022/03/09 10:26:25;;;;;;;25.30;14.10;;;;;;;;;;5014235;28;20077;-67
2022/03/09 10:29:11;;;;;;;22.13;14.53;;;;;;;;;;5013879;28;20509;-67
2022/03/09 10:31:38;;;;;;;20.83;14.47;;;;;;;;;;5014322;28;20034;-70
2022/03/09 10:34:12;;;;;;;23.30;15.17;;;5.60;50.90;;;;;;5014437;28;20113;-66
2022/03/09 10:37:05;;;;;;;25.93;15.33;;;10.30;39.00;;;;;;5014100;28;20482;-66
2022/03/09 10:39:34;;;;;;;23.10;15.23;;;10.30;39.10;;;;;;5014317;28;20041;-67
2022/03/09 10:42:01;;;;;;;22.70;14.23;;;10.40;39.60;;;;;;5014565;28;20092;-67
2022/03/09 10:44:48;;;;;;;24.53;15.93;;;10.50;39.50;;;;;;5014203;28;20037;-67
2022/03/09 10:47:34;;;;;;;20.77;14.57;;;;;;;;;;5013896;28;20060;-67
2022/03/09 10:50:13;;;;;;;21.03;14.73;;;;;;;;;;5013859;28;20425;-67
2022/03/09 10:52:47;;;;;;;28.63;15.60;;;;;;;;;;5014129;28;20081;-66
2022/03/09 10:55:22;;;;;;;30.00;15.47;;;;;;;;;;5014015;28;20029;-67
2022/03/09 10:57:48;;;;;;;43.03;16.93;;;10.60;37.50;;;;;;5014197;28;20038;-67
2022/03/09 11:00:14;;;;;;;24.40;17.43;;;11.00;39.50;;;;;;5013799;28;20034;-67
2022/03/09 11:02:50;;;;;;;25.80;16.40;;;11.00;37.40;;;;;;5013762;28;20531;-67
2022/03/09 11:05:22;;;;;;;22.93;16.33;;;11.10;38.50;;;;;;5013846;28;20057;-66
2022/03/09 11:07:49;;;;;;;23.27;15.73;;;11.10;39.90;;;;;;5013701;28;20044;-67
2022/03/09 11:10:15;;;;;;;23.57;16.23;;;11.20;39.00;;;;;;5013624;28;20045;-67
2022/03/09 11:12:41;;;;;;;25.90;17.87;;;11.30;40.00;;;;;;5013714;28;20034;-67
2022/03/09 11:15:07;;;;;;;28.35;16.58;;;11.40;38.60;;;;;;5013761;28;20398;-67
2022/03/09 11:17:34;;;;;;;25.30;16.43;;;11.40;36.50;;;;;;5013850;28;20113;-67
2022/03/09 11:20:00;;;;;;;21.38;16.35;;;11.40;37.00;;;;;;5013498;28;20030;-67
2022/03/09 11:22:26;;;;;;;24.90;15.65;;;11.50;37.80;;;;;;5013589;28;20038;-67
2022/03/09 11:24:54;;;;;;;26.17;16.88;;;11.60;39.00;;;;;;5013575;28;20037;-67
2022/03/09 11:27:21;;;;;;;24.67;15.75;;;11.60;38.40;;;;;;5013522;28;20478;-67
2022/03/09 11:29:47;;;;;;;25.35;15.73;;;;;;;;;;5013435;28;20080;-67
2022/03/09 11:32:14;;;;;;;46.28;17.27;;;;;;;;;;5013716;28;20389;-67
2022/03/09 11:34:41;;;;;;;25.67;15.80;;;;;;;;;;5013448;28;20172;-67
2022/03/09 11:37:11;;;;;;;27.85;14.50;;;;;;;;;;5013389;28;20508;-67
2022/03/09 11:39:41;;;;;;;22.52;14.90;;;;;;;;;;5013270;28;20393;-67
2022/03/09 11:42:22;;;;;;;22.50;14.90;;;11.70;38.60;;;;;;5013109;28;20038;-67
2022/03/09 11:44:50;;;;;;;21.77;13.55;;;12.10;36.40;;;;;;5013125;28;20072;-67
2022/03/09 11:47:16;;;;;;;27.52;15.57;;;;;;;;;;5011037;28;20050;-67
2022/03/09 11:49:43;;;;;;;21.05;14.45;;;;;;;;;;5012482;28;20058;-68
2022/03/09 11:52:13;;;;;;;21.45;14.50;;;;;;;;;;5012879;28;20044;-67
2022/03/09 11:54:52;;;;;;;19.90;14.23;;;;;;;;;;5012729;28;20038;-67
2022/03/09 11:57:18;;;;;;;21.67;14.90;;;;;;;;;;5012206;28;20058;-67
2022/03/09 11:59:59;;;;;;;23.52;14.70;;;;;;;;;;5012815;28;20038;-67
2022/03/09 12:02:38;;;;;;;25.35;14.75;;;;;;;;;;5012926;28;20644;-67
2022/03/09 12:05:04;;;;;;;22.98;14.30;;;;;;;;;;5012055;28;20490;-71
2022/03/09 12:07:31;;;;;;;20.85;12.73;;;;;;;;;;5011890;28;20056;-67
2022/03/09 12:10:04;;;;;;;24.20;13.50;;;;;;;;;;5010633;28;20058;-67
2022/03/09 12:12:31;;;;;;;23.80;14.45;;;;;;;;;;5010426;28;20037;-67
2022/03/09 12:15:05;;;;;;;17.50;12.15;;;;;;;;;;5010471;28;20038;-67
2022/03/09 12:17:35;;;;;;;20.02;13.38;;;;;;;;;;5011437;28;20048;-67
2022/03/09 12:20:17;;;;;;;20.38;15.23;;;;;;;;;;5012778;28;20121;-70
2022/03/09 12:23:03;;;;;;;18.95;13.65;;;;;;;;;;5012502;28;20070;-67
2022/03/09 12:25:40;;;;;;;22.73;14.93;;;;;;;;;;5012287;28;20034;-72
2022/03/09 12:28:28;;;;;;;20.40;14.50;;;;;;;;;;5011981;28;20045;-67
2022/03/09 12:30:55;;;;;;;20.88;13.77;;;;;;;;;;5012513;28;20034;-68
2022/03/09 12:33:28;;;;;;;21.02;13.70;;;;;;;;;;5012198;28;20044;-66
2022/03/09 12:36:04;;;;;;;19.95;14.07;;;;;;;;;;5012004;28;20050;-67
2022/03/09 12:38:43;;;;;;;18.13;14.43;;;;;;;;;;5012192;28;20034;-67
2022/03/09 12:41:25;;;;;;;16.65;13.27;;;;;;;;;;5012099;28;20038;-67
2022/03/09 12:43:53;;;;;;;18.38;12.90;;;;;;;;;;5012029;28;20038;-68
2022/03/09 12:46:19;;;;;;;19.88;13.13;;;;;;;;;;5011858;28;20038;-68
2022/03/09 12:48:45;;;;;;;21.15;13.43;;;;;;;;;;5011052;28;20125;-67
2022/03/09 12:51:11;;;;;;;17.65;13.30;;;;;;;;;;5012240;28;20037;-68
2022/03/09 12:53:38;;;;;;;17.75;13.38;;;;;;;;;;5012502;28;20117;-67
2022/03/09 12:56:20;;;;;;;20.38;14.25;;;;;;;;;;5012233;28;20058;-73
2022/03/09 12:58:47;;;;;;;23.17;12.73;;;;;;;;;;5014360;28;20038;-67
2022/03/09 13:01:13;;;;;;;17.65;13.05;;;;;;;;;;5015706;28;20048;-70
2022/03/09 13:03:40;;;;;;;19.95;12.63;;;;;;;;;;5016086;28;20053;-73
2022/03/09 13:06:07;;;;;;;17.52;12.57;;;;;;;;;;5015902;28;20056;-67
2022/03/09 13:08:36;;;;;;;16.63;12.13;;;;;;;;;;5015600;28;20041;-67